Time;durP1;ratioP1;P1;durP2;ratioP2;P2;SDS_P1;SDS_P2;PMS_P1;PMS_P2;Temp;Humidity;BMP_temperature;BMP_pressure;BME280_temperature;BME280_humidity;BME280_pressure;Samples;Min_cycle;Max_cycle;Signal;HPM_P1;HPM_P2
2021/07/03 00:02:14;;;;;;;;;;;;;;;15.84;70.18;96708.36;1842218;77;20107;-79
2021/07/03 00:04:42;;;;;;;;;;;;;;;15.78;70.69;96711.66;1838391;77;20119;-79
2021/07/03 00:07:08;;;;;;;;;;;;;;;15.72;71.27;96709.16;1835866;77;20125;-79
2021/07/03 00:09:36;;;;;;;;;;;;;;;15.67;71.69;96702.69;1834333;77;20115;-79
2021/07/03 00:12:06;;;;;;;;;;;;;;;15.60;71.22;96702.50;1850837;77;20169;-78
2021/07/03 00:14:34;;;;;;;;;;;;;;;15.52;70.98;96696.70;1852255;77;20170;-78
2021/07/03 00:17:01;;;;;;;;;;;;;;;15.56;71.31;96701.19;1841241;77;20084;-78
2021/07/03 00:19:28;;;;;;;;;;;;;;;15.55;71.32;96702.19;1829184;77;20100;-77
2021/07/03 00:21:54;;;;;;;;;;;;;;;15.53;71.19;96703.69;1835874;77;20092;-78
2021/07/03 00:24:21;;;;;;;;;;;;;;;15.49;72.25;96700.19;1843655;77;20123;-78
2021/07/03 00:26:47;;;;;;;;;;;;;;;15.45;72.50;96703.67;1848867;77;20180;-78
2021/07/03 00:29:13;;;;;;;;;;;;;;;15.42;72.15;96704.81;1850776;77;20145;-77
2021/07/03 00:31:39;;;;;;;;;;;;;;;15.40;72.65;96708.15;1850370;77;20189;-78
2021/07/03 00:34:05;;;;;;;;;;;;;;;15.40;71.94;96704.64;1850637;77;20118;-78
2021/07/03 00:36:33;;;;;;;;;;;;;;;15.41;72.23;96711.11;1841017;77;20425;-78
2021/07/03 00:38:59;;;;;;;;;;;;;;;15.45;72.55;96712.97;1830808;77;20100;-77
2021/07/03 00:41:25;;;;;;;;;;;;;;;15.51;71.82;96711.45;1831258;77;20154;-78
2021/07/03 00:43:51;;;;;;;;;;;;;;;15.55;71.88;96714.95;1822753;77;20385;-77
2021/07/03 00:46:18;;;;;;;;;;;;;;;15.59;71.95;96718.14;1841485;77;21529;-79
2021/07/03 00:48:45;;;;;;;;;;;;;;;15.64;72.02;96717.64;1838457;77;20428;-78
2021/07/03 00:51:12;;;;;;;;;;;;;;;15.68;71.54;96718.96;1848898;77;20399;-77
2021/07/03 00:53:40;;;;;;;;;;;;;;;15.75;72.20;96723.94;1844973;77;20123;-79
2021/07/03 00:56:06;;;;;;;;;;;;;;;15.82;71.58;96722.31;1807355;77;20115;-75
2021/07/03 00:58:33;;;;;;;;;;;;;;;15.90;71.41;96715.70;1829685;77;20115;-78
2021/07/03 01:01:00;;;;;;;;;;;;;;;16.00;72.27;96724.00;1834833;77;20461;-79
2021/07/03 01:03:26;;;;;;;;;;;;;;;16.08;71.53;96716.02;1837641;77;20105;-77
2021/07/03 01:05:53;;;;;;;;;;;;;;;16.17;71.31;96717.67;1839436;77;20124;-78
2021/07/03 01:08:20;;;;;;;;;;;;;;;16.27;70.72;96720.66;1849180;77;20117;-77
2021/07/03 01:10:46;;;;;;;;;;;;;;;16.33;70.19;96711.98;1850088;77;20172;-77
2021/07/03 01:13:14;;;;;;;;;;;;;;;16.37;70.52;96705.34;1850360;77;20197;-78
2021/07/03 01:15:41;;;;;;;;;;;;;;;16.42;70.12;96702.99;1849244;77;20187;-78
2021/07/03 01:18:08;;;;;;;;;;;;;;;16.47;70.09;96705.14;1836177;77;20123;-77
2021/07/03 01:20:36;;;;;;;;;;;;;;;16.49;69.72;96701.82;1847206;77;20244;-76
2021/07/03 01:23:03;;;;;;;;;;;;;;;16.49;69.77;96699.98;1848289;77;20166;-79
2021/07/03 01:25:33;;;;;;;;;;;;;;;16.52;70.01;96696.14;1849694;77;20145;-78
2021/07/03 01:28:03;;;;;;;;;;;;;;;16.53;70.19;96692.00;1850523;77;20164;-79
2021/07/03 01:30:32;;;;;;;;;;;;;;;16.57;69.74;96700.95;1845504;77;20127;-78
2021/07/03 01:32:59;;;;;;;;;;;;;;;16.58;70.85;96709.27;1847032;77;20141;-78
2021/07/03 01:35:29;;;;;;;;;;;;;;;16.62;70.72;96698.11;1851523;77;20122;-78
2021/07/03 01:37:57;;;;;;;;;;;;;;;16.63;71.38;96703.77;1848339;77;20145;-78
2021/07/03 01:40:25;;;;;;;;;;;;;;;16.67;71.11;96705.09;1822761;77;20141;-78
2021/07/03 01:42:52;;;;;;;;;;;;;;;16.69;71.23;96706.24;1850487;77;20150;-78
2021/07/03 01:45:18;;;;;;;;;;;;;;;16.71;71.53;96703.73;1850846;77;20114;-77
2021/07/03 01:47:48;;;;;;;;;;;;;;;16.73;71.42;96707.58;1842812;77;20096;-78
2021/07/03 01:50:16;;;;;;;;;;;;;;;16.74;70.77;96706.58;1832377;77;20431;-79
2021/07/03 01:52:42;;;;;;;;;;;;;;;16.69;70.93;96706.24;1833377;77;20099;-78
2021/07/03 01:55:11;;;;;;;;;;;;;;;16.74;71.12;96715.89;1842310;77;20269;-78
2021/07/03 01:57:38;;;;;;;;;;;;;;;16.76;70.80;96718.37;1833222;77;20111;-78
2021/07/03 02:00:13;;;;;;;;;;;;;;;16.76;71.15;96716.52;1843965;77;20167;-77
2021/07/03 02:02:49;;;;;;;;;;;;;;;16.78;71.09;96719.84;1834970;77;20123;-81
2021/07/03 02:05:17;;;;;;;;;;;;;;;16.78;71.53;96717.19;1838281;77;20092;-77
2021/07/03 02:07:44;;;;;;;;;;;;;;;16.81;72.58;96714.67;1830633;77;20401;-74
2021/07/03 02:10:12;;;;;;;;;;;;;;;16.82;72.80;96720.33;1841340;77;20127;-72
2021/07/03 02:12:41;;;;;;;;;;;;;;;16.68;73.07;96723.20;1845947;77;20104;-73
2021/07/03 02:15:20;;;;;;;;;;;;;;;16.53;72.79;96721.27;1840995;77;20100;-71
2021/07/03 02:17:50;;;;;;;;;;;;;;;16.45;74.12;96715.96;1842265;77;20395;-73
2021/07/03 02:20:17;;;;;;;;;;;;;;;16.39;74.44;96710.81;1852116;77;20122;-74
2021/07/03 02:22:45;;;;;;;;;;;;;;;16.36;74.08;96712.48;1848816;77;20608;-74
2021/07/03 02:25:14;;;;;;;;;;;;;;;16.30;74.48;96717.63;1848367;77;20414;-73
2021/07/03 02:27:40;;;;;;;;;;;;;;;16.22;73.49;96717.17;1851001;77;20220;-74
2021/07/03 02:30:11;;;;;;;;;;;;;;;16.14;74.19;96716.66;1849362;77;20170;-75
2021/07/03 02:32:41;;;;;;;;;;;;;;;16.08;73.57;96718.16;1850500;77;20126;-75
2021/07/03 02:35:09;;;;;;;;;;;;;;;16.01;75.05;96716.33;1849093;77;20122;-75
2021/07/03 02:37:38;;;;;;;;;;;;;;;15.97;76.46;96712.36;1847696;77;20110;-75
2021/07/03 02:40:07;;;;;;;;;;;;;;;15.89;77.59;96710.05;1848183;77;20137;-76
2021/07/03 02:42:35;;;;;;;;;;;;;;;15.82;74.95;96713.01;1849015;77;20167;-75
2021/07/03 02:45:01;;;;;;;;;;;;;;;15.75;75.31;96714.64;1848748;77;20158;-77
2021/07/03 02:47:28;;;;;;;;;;;;;;;15.73;75.36;96716.66;1836456;77;20179;-73
2021/07/03 02:49:54;;;;;;;;;;;;;;;15.72;74.87;96714.99;1830905;77;20160;-75
2021/07/03 02:52:22;;;;;;;;;;;;;;;15.70;75.19;96709.00;1829174;77;20120;-74
2021/07/03 02:54:49;;;;;;;;;;;;;;;15.70;77.71;96712.99;1790536;77;20149;-74
2021/07/03 02:57:17;;;;;;;;;;;;;;;15.68;77.10;96715.82;1839338;77;20377;-75
2021/07/03 02:59:43;;;;;;;;;;;;;;;15.69;75.77;96715.31;1848756;77;20148;-74
2021/07/03 03:02:10;;;;;;;;;;;;;;;15.62;76.49;96709.81;1818189;78;20103;-76
2021/07/03 03:04:38;;;;;;;;;;;;;;;15.60;76.94;96713.12;1847013;77;20399;-74
2021/07/03 03:07:05;;;;;;;;;;;;;;;15.54;75.74;96710.66;1851860;77;20122;-76
2021/07/03 03:09:31;;;;;;;;;;;;;;;15.53;76.90;96709.48;1849221;77;20246;-75
2021/07/03 03:12:00;;;;;;;;;;;;;;;15.52;79.07;96713.97;1848211;77;20110;-75
2021/07/03 03:14:27;;;;;;;;;;;;;;;15.52;77.25;96708.66;1849512;77;20141;-76
2021/07/03 03:16:55;;;;;;;;;;;;;;;15.53;77.22;96709.48;1849133;77;20142;-78
2021/07/03 03:19:22;;;;;;;;;;;;;;;15.52;78.69;96717.95;1848898;77;20418;-78
2021/07/03 03:21:50;;;;;;;;;;;;;;;15.53;77.78;96716.97;1845785;77;20416;-75
2021/07/03 03:24:18;;;;;;;;;;;;;;;15.55;77.18;96716.28;1847911;77;20125;-75
2021/07/03 03:26:44;;;;;;;;;;;;;;;15.58;77.23;96721.27;1847804;77;20115;-76
2021/07/03 03:29:11;;;;;;;;;;;;;;;15.64;77.35;96721.63;1848228;77;20114;-75
2021/07/03 03:31:38;;;;;;;;;;;;;;;15.69;77.71;96723.28;1849475;77;20407;-74
2021/07/03 03:34:04;;;;;;;;;;;;;;;15.70;77.14;96720.45;1848297;77;20164;-75
2021/07/03 03:36:32;;;;;;;;;;;;;;;15.74;77.03;96724.94;1847308;77;20114;-76
2021/07/03 03:39:00;;;;;;;;;;;;;;;15.75;76.95;96723.46;1847450;77;20107;-75
2021/07/03 03:41:26;;;;;;;;;;;;;;;15.81;77.46;96723.30;1819256;77;20146;-75
2021/07/03 03:43:53;;;;;;;;;;;;;;;15.86;77.08;96721.50;1846515;77;20114;-75
2021/07/03 03:46:21;;;;;;;;;;;;;;;15.87;77.09;96720.52;1844509;77;20157;-75
2021/07/03 03:48:49;;;;;;;;;;;;;;;15.91;77.35;96722.64;1849927;77;20110;-75
2021/07/03 03:51:17;;;;;;;;;;;;;;;15.93;77.67;96727.30;1847564;77;20132;-76
2021/07/03 03:53:44;;;;;;;;;;;;;;;15.95;76.76;96728.97;1841663;77;20084;-76
2021/07/03 03:56:11;;;;;;;;;;;;;;;16.01;77.20;96729.62;1828974;77;20171;-75
2021/07/03 03:58:38;;;;;;;;;;;;;;;16.04;77.18;96726.16;1825306;77;20112;-76
2021/07/03 04:01:05;;;;;;;;;;;;;;;16.09;76.87;96725.66;1817537;78;20088;-76
2021/07/03 04:03:32;;;;;;;;;;;;;;;16.11;76.59;96728.14;1848664;78;20088;-76
2021/07/03 04:05:59;;;;;;;;;;;;;;;16.13;77.16;96728.81;1810688;77;20156;-76
2021/07/03 04:08:26;;;;;;;;;;;;;;;16.16;76.78;96727.97;1841436;77;20432;-76
2021/07/03 04:10:52;;;;;;;;;;;;;;;16.17;76.58;96721.66;1843977;77;20396;-77
2021/07/03 04:13:18;;;;;;;;;;;;;;;16.18;76.49;96723.33;1844016;77;20424;-74
2021/07/03 04:15:44;;;;;;;;;;;;;;;16.22;76.71;96724.63;1843956;77;20397;-76
2021/07/03 04:18:10;;;;;;;;;;;;;;;16.12;76.82;96700.05;1836515;77;20144;-76
2021/07/03 04:20:37;;;;;;;;;;;;;;;16.25;76.66;96723.45;1829888;77;20128;-79
2021/07/03 04:23:03;;;;;;;;;;;;;;;16.30;77.05;96722.95;1827351;77;20100;-87
2021/07/03 04:25:29;;;;;;;;;;;;;;;16.31;76.99;96724.13;1830168;77;20132;-76
2021/07/03 04:27:55;;;;;;;;;;;;;;;16.35;76.73;96720.64;1838292;77;20179;-77
2021/07/03 04:30:22;;;;;;;;;;;;;;;16.41;77.25;96721.28;1839603;77;20091;-76
2021/07/03 04:32:48;;;;;;;;;;;;;;;16.44;76.59;96722.77;1826333;77;20180;-76
2021/07/03 04:35:16;;;;;;;;;;;;;;;16.45;76.49;96721.28;1844839;77;20739;-79
2021/07/03 04:37:43;;;;;;;;;;;;;;;16.46;76.86;96728.75;1843643;77;20123;-77
2021/07/03 04:40:10;;;;;;;;;;;;;;;16.45;76.65;96721.28;1817203;77;20357;-76
2021/07/03 04:42:36;;;;;;;;;;;;;;;16.48;76.75;96728.09;1833482;77;20175;-79
2021/07/03 04:45:03;;;;;;;;;;;;;;;16.47;76.56;96729.08;1831679;77;20092;-78
2021/07/03 04:47:31;;;;;;;;;;;;;;;16.43;76.50;96729.08;1832540;77;20360;-77
2021/07/03 04:49:57;;;;;;;;;;;;;;;16.43;77.13;96729.92;1843859;77;20170;-76
2021/07/03 04:52:25;;;;;;;;;;;;;;;16.46;77.57;96734.92;1848930;77;20115;-76
2021/07/03 04:54:52;;;;;;;;;;;;;;;16.48;76.95;96728.91;1850101;77;20203;-75
2021/07/03 04:57:18;;;;;;;;;;;;;;;16.50;77.11;96725.58;1847841;77;20114;-75
2021/07/03 04:59:45;;;;;;;;;;;;;;;16.54;77.07;96725.59;1849584;77;20137;-76
2021/07/03 05:02:13;;;;;;;;;;;;;;;16.59;76.59;96724.23;1823131;77;20114;-75
2021/07/03 05:04:42;;;;;;;;;;;;;;;16.60;77.11;96724.08;1845028;77;20133;-80
2021/07/03 05:07:08;;;;;;;;;;;;;;;16.61;76.69;96729.70;1848363;77;20118;-76
2021/07/03 05:09:36;;;;;;;;;;;;;;;16.62;76.53;96733.21;1850533;77;20191;-75
2021/07/03 05:12:03;;;;;;;;;;;;;;;16.63;76.92;96739.68;1800732;77;20144;-76
2021/07/03 05:14:29;;;;;;;;;;;;;;;16.69;77.46;96739.50;1839848;77;20427;-75
2021/07/03 05:16:55;;;;;;;;;;;;;;;16.69;76.63;96741.68;1853024;77;20403;-76
2021/07/03 05:19:21;;;;;;;;;;;;;;;16.70;77.00;96747.82;1851237;77;20114;-77
2021/07/03 05:21:47;;;;;;;;;;;;;;;16.72;76.70;96749.81;1847974;77;20166;-81
2021/07/03 05:24:15;;;;;;;;;;;;;;;16.75;77.64;96750.78;1849187;77;20165;-75
2021/07/03 05:26:41;;;;;;;;;;;;;;;16.79;76.72;96753.45;1837374;77;20187;-75
2021/07/03 05:29:07;;;;;;;;;;;;;;;16.85;76.80;96742.11;1825658;77;20092;-76
2021/07/03 05:31:33;;;;;;;;;;;;;;;16.88;76.93;96746.77;1839289;77;20385;-75
2021/07/03 05:34:00;;;;;;;;;;;;;;;16.92;77.24;96745.44;1830177;77;20087;-75
2021/07/03 05:36:27;;;;;;;;;;;;;;;17.00;76.95;96753.42;1832474;77;20111;-76
2021/07/03 05:38:53;;;;;;;;;;;;;;;17.06;77.36;96751.39;1823126;77;20104;-79
2021/07/03 05:41:19;;;;;;;;;;;;;;;17.06;76.88;96750.05;1831455;77;20100;-87
2021/07/03 05:43:46;;;;;;;;;;;;;;;17.08;76.62;96749.39;1831637;77;20111;-77
2021/07/03 05:46:13;;;;;;;;;;;;;;;17.09;76.80;96747.06;1841145;77;20389;-75
2021/07/03 05:48:40;;;;;;;;;;;;;;;17.15;76.82;96751.68;1838786;77;20393;-74
2021/07/03 05:51:09;;;;;;;;;;;;;;;17.21;76.84;96752.83;1847832;77;20138;-75
2021/07/03 05:53:35;;;;;;;;;;;;;;;17.23;76.75;96759.30;1850002;77;20462;-75
2021/07/03 05:56:01;;;;;;;;;;;;;;;17.25;76.38;96758.62;1850098;77;20564;-75
2021/07/03 05:58:27;;;;;;;;;;;;;;;17.24;76.15;96759.14;1848106;77;20512;-75
2021/07/03 06:00:53;;;;;;;;;;;;;;;17.31;76.44;96759.25;1850621;77;20442;-75
2021/07/03 06:03:20;;;;;;;;;;;;;;;17.33;76.00;96758.10;1812928;78;20124;-75
2021/07/03 06:05:46;;;;;;;;;;;;;;;17.37;76.31;96765.23;1841021;77;20893;-75
2021/07/03 06:08:12;;;;;;;;;;;;;;;17.40;76.30;96770.71;1823094;77;20373;-74
2021/07/03 06:10:38;;;;;;;;;;;;;;;17.39;76.22;96764.56;1845308;77;20084;-75
2021/07/03 06:13:04;;;;;;;;;;;;;;;17.36;75.86;96770.23;1836304;77;20088;-75
2021/07/03 06:15:30;;;;;;;;;;;;;;;17.31;76.01;96761.92;1829728;77;20088;-74
2021/07/03 06:17:56;;;;;;;;;;;;;;;17.29;75.98;96769.28;1828506;77;20103;-74
2021/07/03 06:20:22;;;;;;;;;;;;;;;17.26;76.85;96773.09;1833005;77;20093;-75
2021/07/03 06:22:50;;;;;;;;;;;;;;;17.22;76.45;96773.12;1830327;77;20101;-75
2021/07/03 06:25:18;;;;;;;;;;;;;;;17.22;76.55;96773.61;1845078;77;20162;-74
2021/07/03 06:27:44;;;;;;;;;;;;;;;17.22;76.48;96775.80;1848888;77;20122;-75
2021/07/03 06:30:12;;;;;;;;;;;;;;;17.29;76.76;96777.27;1841334;77;20123;-76
2021/07/03 06:32:38;;;;;;;;;;;;;;;17.33;76.59;96776.75;1835156;77;20428;-75
2021/07/03 06:35:05;;;;;;;;;;;;;;;17.37;76.41;96777.71;1844049;77;20145;-76
2021/07/03 06:37:31;;;;;;;;;;;;;;;17.41;76.18;96776.37;1825680;77;20183;-78
2021/07/03 06:40:00;;;;;;;;;;;;;;;17.44;76.19;96781.36;1823193;77;20127;-76
2021/07/03 06:42:26;;;;;;;;;;;;;;;17.48;75.32;96779.50;1839562;77;20119;-78
2021/07/03 06:44:52;;;;;;;;;;;;;;;17.54;75.96;96781.95;1842087;77;20144;-78
2021/07/03 06:47:19;;;;;;;;;;;;;;;17.64;75.97;96783.08;1822605;77;20127;-78
2021/07/03 06:49:46;;;;;;;;;;;;;;;17.68;74.45;96785.70;1830067;77;20459;-75
2021/07/03 06:52:15;;;;;;;;;;;;;;;17.73;75.54;96786.02;1848605;77;20435;-76
2021/07/03 06:54:41;;;;;;;;;;;;;;;17.78;75.03;96785.48;1848854;77;20203;-76
2021/07/03 06:57:09;;;;;;;;;;;;;;;17.85;74.12;96788.28;1847004;77;20415;-75
2021/07/03 06:59:35;;;;;;;;;;;;;;;17.96;74.92;96785.22;1847861;77;20509;-81
2021/07/03 07:02:02;;;;;;;;;;;;;;;18.03;74.72;96780.86;1847783;77;20395;-78
2021/07/03 07:04:28;;;;;;;;;;;;;;;18.03;74.61;96779.52;1852870;77;20126;-76
2021/07/03 07:06:56;;;;;;;;;;;;;;;18.10;74.37;96786.28;1849247;77;20411;-75
2021/07/03 07:09:25;;;;;;;;;;;;;;;18.24;74.39;96789.52;1851198;77;20122;-76
2021/07/03 07:11:53;;;;;;;;;;;;;;;18.31;72.94;96784.30;1850734;77;20162;-75
2021/07/03 07:14:19;;;;;;;;;;;;;;;18.29;75.04;96790.31;1849842;77;20177;-76
2021/07/03 07:16:45;;;;;;;;;;;;;;;18.17;71.80;96795.25;1837731;77;20100;-71
2021/07/03 07:19:11;;;;;;;;;;;;;;;18.10;73.44;96792.95;1813076;77;20102;-73
2021/07/03 07:21:38;;;;;;;;;;;;;;;18.12;73.75;96792.27;1832884;77;20106;-73
2021/07/03 07:24:05;;;;;;;;;;;;;;;18.18;73.72;96790.73;1849716;77;20126;-74
2021/07/03 07:26:32;;;;;;;;;;;;;;;18.23;73.43;96793.19;1849152;77;20135;-79
2021/07/03 07:28:59;;;;;;;;;;;;;;;18.29;74.27;96792.98;1825885;77;20124;-72
2021/07/03 07:31:25;;;;;;;;;;;;;;;18.37;73.71;96790.76;1838048;77;20087;-76
2021/07/03 07:33:53;;;;;;;;;;;;;;;18.45;74.04;96796.02;1847943;77;20377;-69
2021/07/03 07:36:19;;;;;;;;;;;;;;;18.57;73.37;96792.41;1850150;77;20095;-72
2021/07/03 07:38:46;;;;;;;;;;;;;;;18.71;72.98;96792.91;1836745;77;20624;-72
2021/07/03 07:41:12;;;;;;;;;;;;;;;18.91;72.45;96795.05;1828370;77;20565;-72
2021/07/03 07:43:38;;;;;;;;;;;;;;;19.10;73.06;96798.22;1847313;78;20191;-73
2021/07/03 07:46:04;;;;;;;;;;;;;;;19.26;72.12;96799.36;1842576;77;20100;-75
2021/07/03 07:48:33;;;;;;;;;;;;;;;19.43;71.12;96804.00;1824608;77;20087;-74
2021/07/03 07:51:00;;;;;;;;;;;;;;;19.56;71.74;96799.31;1813807;78;20112;-74
2021/07/03 07:53:30;;;;;;;;;;;;;;;19.75;70.14;96806.42;1830015;77;20131;-74
2021/07/03 07:55:58;;;;;;;;;;;;;;;19.91;68.66;96806.21;1820672;78;20119;-73
2021/07/03 07:58:25;;;;;;;;;;;;;;;20.05;68.58;96807.70;1819227;78;20423;-81
2021/07/03 08:00:52;;;;;;;;;;;;;;;20.20;67.03;96805.78;1841046;77;20429;-71
2021/07/03 08:03:19;;;;;;;;;;;;;;;20.26;67.62;96806.38;1820703;78;20964;-73
2021/07/03 08:05:46;;;;;;;;;;;;;;;20.33;65.97;96803.73;1841932;77;20322;-75
2021/07/03 08:08:12;;;;;;;;;;;;;;;20.27;66.76;96805.35;1810003;77;20191;-73
2021/07/03 08:10:40;;;;;;;;;;;;;;;20.23;66.76;96805.41;1807302;77;20116;-75
2021/07/03 08:13:06;;;;;;;;;;;;;;;20.20;66.67;96805.78;1819357;78;20881;-77
2021/07/03 08:15:33;;;;;;;;;;;;;;;20.15;65.39;96811.38;1819837;78;20416;-74
2021/07/03 08:18:02;;;;;;;;;;;;;;;20.07;64.45;96807.82;1822029;77;20112;-75
2021/07/03 08:20:28;;;;;;;;;;;;;;;20.05;66.35;96812.52;1827931;77;20177;-76
2021/07/03 08:22:55;;;;;;;;;;;;;;;20.01;65.44;96809.93;1815992;78;20217;-73
2021/07/03 08:25:23;;;;;;;;;;;;;;;20.01;65.99;96813.09;1821007;77;20104;-75
2021/07/03 08:27:51;;;;;;;;;;;;;;;20.02;66.13;96817.43;1819048;78;20100;-74
2021/07/03 08:30:18;;;;;;;;;;;;;;;20.05;64.29;96825.09;1823639;78;20369;-74
2021/07/03 08:32:45;;;;;;;;;;;;;;;20.09;65.25;96819.69;1823484;77;20157;-73
2021/07/03 08:35:12;;;;;;;;;;;;;;;20.11;64.19;96818.97;1842295;77;20119;-74
2021/07/03 08:37:39;;;;;;;;;;;;;;;20.12;65.19;96825.97;1825241;77;20137;-76
2021/07/03 08:40:07;;;;;;;;;;;;;;;20.15;64.92;96823.42;1839932;77;20500;-73
2021/07/03 08:42:33;;;;;;;;;;;;;;;20.16;66.17;96831.77;1847231;77;20397;-83
2021/07/03 08:45:00;;;;;;;;;;;;;;;20.14;64.41;96831.97;1835146;77;20120;-80
2021/07/03 08:47:26;;;;;;;;;;;;;;;20.17;64.37;96833.43;1836718;77;20179;-73
2021/07/03 08:49:55;;;;;;;;;;;;;;;20.20;64.98;96835.21;1828425;77;20436;-74
2021/07/03 08:52:22;;;;;;;;;;;;;;;20.19;65.42;96844.78;1827420;78;20406;-80
2021/07/03 08:54:58;;;;;;;;;;;;;;;20.14;65.46;96842.67;1846415;77;20187;-73
2021/07/03 08:57:24;;;;;;;;;;;;;;;20.11;65.39;96848.39;1837634;77;20104;-75
2021/07/03 08:59:59;;;;;;;;;;;;;;;20.10;65.53;96844.91;1827646;77;20100;-74
2021/07/03 09:02:37;;;;;;;;;;;;;;;20.17;66.03;96848.99;1841467;77;20148;-73
2021/07/03 09:05:08;;;;;;;;;;;;;;;20.22;67.95;96838.53;1849996;77;20084;-72
2021/07/03 09:07:35;;;;;;;;;;;;;;;20.24;67.04;96842.34;1841420;77;20111;-73
2021/07/03 09:10:03;;;;;;;;;;;;;;;20.23;66.82;96846.06;1822656;77;20092;-73
2021/07/03 09:12:34;;;;;;;;;;;;;;;20.17;66.18;96852.16;1822703;77;20198;-73
2021/07/03 09:15:14;;;;;;;;;;;;;;;20.05;66.29;96855.33;1841970;77;20429;-73
2021/07/03 09:18:01;;;;;;;;;;;;;;;19.94;66.43;96855.84;1842233;77;20112;-74
2021/07/03 09:20:58;;;;;;;;;;;;;;;19.82;67.17;96851.44;1828329;77;20181;-72
2021/07/03 09:23:27;;;;;;;;;;;;;;;19.72;69.04;96853.08;1819625;77;20104;-72
2021/07/03 09:25:59;;;;;;;;;;;;;;;19.65;68.39;96858.86;1835831;77;20163;-72
2021/07/03 09:28:27;;;;;;;;;;;;;;;19.64;69.16;96851.86;1842168;77;20095;-73
2021/07/03 09:30:56;;;;;;;;;;;;;;;19.62;68.21;96849.38;1846458;77;20104;-72
2021/07/03 09:33:34;;;;;;;;;;;;;;;19.62;69.24;96851.20;1846467;77;20131;-74
2021/07/03 09:36:05;;;;;;;;;;;;;;;19.62;68.97;96857.89;1833347;77;20392;-73
2021/07/03 09:38:35;;;;;;;;;;;;;;;19.62;68.49;96857.89;1802835;77;20414;-73
2021/07/03 09:41:11;;;;;;;;;;;;;;;19.57;68.82;96857.63;1841907;77;20380;-73
2021/07/03 09:43:43;;;;;;;;;;;;;;;19.50;68.81;96854.34;1825494;77;20897;-74
2021/07/03 09:46:09;;;;;;;;;;;;;;;19.37;69.65;96855.53;1834071;77;20143;-75
2021/07/03 09:48:38;;;;;;;;;;;;;;;19.15;69.46;96857.28;1838137;77;20149;-75
2021/07/03 09:51:08;;;;;;;;;;;;;;;19.04;70.44;96857.20;1827591;77;20147;-75
2021/07/03 09:53:37;;;;;;;;;;;;;;;18.95;71.04;96855.63;1835501;77;20104;-78
2021/07/03 09:56:04;;;;;;;;;;;;;;;18.85;71.59;96858.55;1830639;77;20112;-77
2021/07/03 09:58:32;;;;;;;;;;;;;;;18.71;71.66;96859.66;1836772;77;20170;-75
2021/07/03 10:00:59;;;;;;;;;;;;;;;18.63;71.53;96852.23;1847086;77;20105;-76
2021/07/03 10:03:26;;;;;;;;;;;;;;;18.62;72.50;96854.06;1830799;77;20369;-75
2021/07/03 10:05:54;;;;;;;;;;;;;;;18.64;71.85;96847.23;1836339;77;20096;-73
2021/07/03 10:08:21;;;;;;;;;;;;;;;18.62;72.10;96854.06;1838745;77;20393;-75
2021/07/03 10:10:59;;;;;;;;;;;;;;;18.60;72.77;96861.94;1831145;77;20401;-75
2021/07/03 10:13:28;;;;;;;;;;;;;;;18.61;73.08;96851.06;1835928;77;20092;-76
2021/07/03 10:16:07;;;;;;;;;;;;;;;18.69;72.50;96856.84;1833068;77;20104;-74
2021/07/03 10:18:35;;;;;;;;;;;;;;;18.76;72.35;96853.77;1844967;77;20191;-76
2021/07/03 10:21:12;;;;;;;;;;;;;;;18.82;71.94;96849.06;1833354;77;20170;-75
2021/07/03 10:23:41;;;;;;;;;;;;;;;18.86;71.90;96854.86;1843945;77;20155;-75
2021/07/03 10:26:07;;;;;;;;;;;;;;;18.87;72.05;96855.19;1828342;77;20103;-75
2021/07/03 10:28:36;;;;;;;;;;;;;;;18.84;72.43;96855.55;1822918;77;20185;-75
2021/07/03 10:31:12;;;;;;;;;;;;;;;18.87;72.59;96856.53;1828226;77;20187;-75
2021/07/03 10:33:44;;;;;;;;;;;;;;;18.95;72.66;96859.63;1822953;77;20096;-75
2021/07/03 10:36:22;;;;;;;;;;;;;;;19.05;73.67;96854.86;1836567;77;20123;-76
2021/07/03 10:38:48;;;;;;;;;;;;;;;19.10;72.21;96851.64;1827360;77;20159;-76
2021/07/03 10:41:18;;;;;;;;;;;;;;;19.15;72.60;96850.60;1822896;77;20091;-74
2021/07/03 10:43:48;;;;;;;;;;;;;;;19.19;72.26;96847.87;1833772;77;20139;-76
2021/07/03 10:46:29;;;;;;;;;;;;;;;19.29;72.31;96850.28;1830551;77;20272;-75
2021/07/03 10:49:07;;;;;;;;;;;;;;;19.39;72.27;96846.83;1844063;77;20107;-76
2021/07/03 10:51:36;;;;;;;;;;;;;;;19.46;71.94;96850.90;1844665;77;20230;-73
2021/07/03 10:54:25;;;;;;;;;;;;;;;19.48;72.75;96840.37;1825747;77;20096;-74
2021/07/03 10:57:08;;;;;;;;;;;;;;;19.51;73.50;96839.16;1825133;77;20119;-77
2021/07/03 10:59:36;;;;;;;;;;;;;;;19.51;72.37;96836.48;1843328;77;20112;-76
2021/07/03 11:02:11;;;;;;;;;;;;;;;19.55;72.58;96835.08;1825712;77;20131;-76
2021/07/03 11:04:49;;;;;;;;;;;;;;;19.59;71.82;96840.39;1842406;77;20127;-77
2021/07/03 11:07:17;;;;;;;;;;;;;;;19.63;71.76;96837.64;1824230;77;20254;-74
2021/07/03 11:09:46;;;;;;;;;;;;;;;19.69;71.81;96828.57;1846593;77;20149;-79
2021/07/03 11:12:20;;;;;;;;;;;;;;;19.78;72.25;96828.27;1845105;77;20104;-77
2021/07/03 11:14:54;;;;;;;;;;;;;;;19.90;72.00;96829.14;1837503;77;20118;-75
2021/07/03 11:17:22;;;;;;;;;;;;;;;20.06;72.62;96824.89;1830080;77;20118;-77
2021/07/03 11:19:50;;;;;;;;;;;;;;;20.21;72.48;96815.47;1825480;77;20389;-75
2021/07/03 11:22:22;;;;;;;;;;;;;;;20.33;72.51;96814.44;1825939;77;20396;-73
2021/07/03 11:24:56;;;;;;;;;;;;;;;20.47;71.71;96810.02;1839576;77;20100;-73
2021/07/03 11:27:34;;;;;;;;;;;;;;;20.63;71.24;96804.91;1829582;77;20487;-77
2021/07/03 11:30:03;;;;;;;;;;;;;;;20.82;71.61;96807.95;1825228;77;20384;-75
2021/07/03 11:32:29;;;;;;;;;;;;;;;21.08;71.50;96807.31;1822437;77;20086;-75
2021/07/03 11:34:59;;;;;;;;;;;;;;;21.32;71.17;96806.49;1832564;77;20107;-74
2021/07/03 11:37:37;;;;;;;;;;;;;;;21.55;70.46;96807.52;1835638;77;20210;-76
2021/07/03 11:40:07;;;;;;;;;;;;;;;21.79;68.55;96802.70;1826635;77;20100;-77
2021/07/03 11:42:44;;;;;;;;;;;;;;;22.01;69.35;96799.35;1823065;77;20480;-76
2021/07/03 11:45:12;;;;;;;;;;;;;;;22.23;71.26;96795.97;1839262;77;20087;-75
2021/07/03 11:47:41;;;;;;;;;;;;;;;22.39;67.34;96793.41;1840556;77;20158;-77
2021/07/03 11:50:17;;;;;;;;;;;;;;;22.60;65.65;96784.34;1831068;77;20119;-74
2021/07/03 11:52:52;;;;;;;;;;;;;;;22.73;66.75;96788.06;1822983;77;20159;-76
2021/07/03 11:55:23;;;;;;;;;;;;;;;22.81;67.18;96768.20;1821328;77;20136;-76
2021/07/03 11:57:50;;;;;;;;;;;;;;;23.02;66.71;96776.52;1822174;77;20111;-75
2021/07/03 12:00:20;;;;;;;;;;;;;;;23.12;64.59;96774.75;1836148;77;20124;-79
2021/07/03 12:02:47;;;;;;;;;;;;;;;23.24;69.62;96774.45;1831227;77;20101;-76
2021/07/03 12:05:17;;;;;;;;;;;;;;;23.28;63.18;96770.81;1825409;77;20162;-76
2021/07/03 12:07:43;;;;;;;;;;;;;;;23.42;63.22;96771.05;1839265;77;20143;-79
2021/07/03 12:10:11;;;;;;;;;;;;;;;23.54;64.49;96763.13;1828556;77;20159;-75
2021/07/03 12:12:38;;;;;;;;;;;;;;;23.68;62.08;96762.55;1844980;77;20417;-77
2021/07/03 12:15:11;;;;;;;;;;;;;;;23.80;62.15;96759.48;1836748;77;20140;-76
2021/07/03 12:17:49;;;;;;;;;;;;;;;23.93;61.93;96761.27;1840783;77;20107;-74
2021/07/03 12:20:18;;;;;;;;;;;;;;;24.01;61.39;96757.53;1844244;77;20150;-76
2021/07/03 12:22:56;;;;;;;;;;;;;;;24.07;59.41;96753.16;1846017;77;20132;-77
2021/07/03 12:25:24;;;;;;;;;;;;;;;24.09;61.95;96751.05;1821016;77;20100;-75
2021/07/03 12:28:00;;;;;;;;;;;;;;;24.10;58.64;96745.46;1829782;77;20108;-75
2021/07/03 12:30:29;;;;;;;;;;;;;;;24.00;64.88;96751.31;1824432;77;20115;-81
2021/07/03 12:33:05;;;;;;;;;;;;;;;23.69;62.78;96748.91;1847338;77;20414;-79
2021/07/03 12:35:37;;;;;;;;;;;;;;;23.49;60.29;96744.14;1846643;77;20131;-74
2021/07/03 12:38:04;;;;;;;;;;;;;;;23.19;62.12;96747.36;1847058;77;20147;-76
2021/07/03 12:40:36;;;;;;;;;;;;;;;22.97;64.44;96754.84;1839107;77;20382;-75
2021/07/03 12:43:03;;;;;;;;;;;;;;;22.63;63.56;96755.43;1829656;77;20113;-77
2021/07/03 12:45:29;;;;;;;;;;;;;;;21.84;63.83;96747.92;1832492;77;20119;-77
2021/07/03 12:48:14;;;;;;;;;;;;;;;21.14;65.34;96754.26;1829862;77;20405;-77
2021/07/03 12:50:45;;;;;;;;;;;;;;;20.80;66.17;96759.11;1819884;77;20467;-84
2021/07/03 12:53:14;;;;;;;;;;;;;;;20.57;68.71;96755.64;1820122;79;20122;-80
2021/07/03 12:55:44;;;;;;;;;;;;;;;20.64;68.70;96751.67;1811921;78;20108;-74